createdAt,value
2022-11-10T08:30:50.286Z,68.43
2022-11-10T08:33:19.980Z,70.32
2022-11-10T08:35:48.801Z,138.02
2022-11-10T08:38:21.134Z,147.85
2022-11-10T08:40:47.981Z,126.10
2022-11-10T08:43:15.534Z,110.38
2022-11-10T08:45:43.706Z,101.10
2022-11-10T08:48:17.632Z,95.13
2022-11-10T08:50:44.522Z,98.22
2022-11-10T08:53:16.160Z,140.45
2022-11-10T08:55:43.926Z,153.43
2022-11-10T08:58:13.625Z,161.32
2022-11-10T09:00:40.190Z,137.80
2022-11-10T09:03:15.261Z,132.25
2022-11-10T09:05:42.665Z,185.20
2022-11-10T09:08:09.937Z,139.05
2022-11-10T09:10:41.839Z,137.65
2022-11-10T09:13:08.906Z,140.77
2022-11-10T09:15:35.817Z,128.82
2022-11-10T09:18:04.453Z,160.73
2022-11-10T09:20:33.733Z,170.55
2022-11-10T09:23:17.661Z,153.55
2022-11-10T09:25:52.769Z,171.27
2022-11-10T09:28:20.288Z,165.88
2022-11-10T09:30:51.244Z,154.15
2022-11-10T09:33:18.440Z,149.23
2022-11-10T09:35:45.174Z,165.93
2022-11-10T09:38:12.163Z,135.23
2022-11-10T09:41:03.387Z,69.45
2022-11-10T09:44:02.067Z,57.97
2022-11-10T09:46:35.418Z,61.75
2022-11-10T09:49:13.029Z,68.63
2022-11-10T09:51:47.991Z,75.18
2022-11-10T09:54:37.113Z,80.75
2022-11-10T09:57:06.303Z,66.80
2022-11-10T09:59:34.421Z,84.22
2022-11-10T10:02:05.985Z,74.30
2022-11-10T10:04:48.776Z,76.10
2022-11-10T10:07:43.954Z,90.55
2022-11-10T10:10:17.668Z,112.38
2022-11-10T10:12:54.645Z,119.45
2022-11-10T10:15:30.276Z,126.60
2022-11-10T10:18:03.209Z,142.30
2022-11-10T10:20:46.761Z,134.38
2022-11-10T10:23:35.209Z,124.90
2022-11-10T10:26:15.602Z,136.48
2022-11-10T10:28:46.663Z,112.40
2022-11-10T10:31:22.014Z,90.47
2022-11-10T10:33:49.166Z,72.85
2022-11-10T10:36:23.759Z,52.00
2022-11-10T10:39:04.610Z,39.15
2022-11-10T10:41:34.655Z,32.92
2022-11-10T10:44:03.092Z,33.90
2022-11-10T10:46:35.766Z,34.92
2022-11-10T10:49:32.948Z,35.90
2022-11-10T10:52:07.123Z,34.60
2022-11-10T10:54:36.363Z,37.22
2022-11-10T10:57:20.778Z,38.35
2022-11-10T10:59:47.463Z,40.53
2022-11-10T11:02:40.350Z,39.08
2022-11-10T11:05:15.963Z,39.25
2022-11-10T11:07:56.001Z,39.53
2022-11-10T11:10:34.537Z,39.20
2022-11-10T11:13:14.672Z,41.65
2022-11-10T11:15:41.208Z,41.40
2022-11-10T11:18:20.494Z,40.35
2022-11-10T11:21:20.952Z,41.15
2022-11-10T11:24:03.616Z,39.78
2022-11-10T11:26:43.791Z,40.88
2022-11-10T11:29:32.881Z,39.20
2022-11-10T11:32:21.777Z,39.63
2022-11-10T11:35:03.040Z,40.40
2022-11-10T11:37:46.165Z,42.33
2022-11-10T11:40:37.969Z,39.40
2022-11-10T11:43:23.142Z,36.90
2022-11-10T11:45:59.793Z,41.38
2022-11-10T11:49:15.449Z,40.03
2022-11-10T11:52:03.422Z,41.47
2022-11-10T11:54:47.416Z,41.63
2022-11-10T11:57:29.093Z,47.27
2022-11-10T12:00:02.556Z,48.97
2022-11-10T12:02:52.673Z,52.80
2022-11-10T12:05:37.901Z,59.85
2022-11-10T12:08:33.054Z,77.13
2022-11-10T12:11:05.277Z,87.55
2022-11-10T12:13:31.709Z,90.03
2022-11-10T12:16:17.020Z,120.60
2022-11-10T12:18:57.900Z,118.25
2022-11-10T12:21:34.973Z,119.45
2022-11-10T12:24:29.563Z,147.68
2022-11-10T12:26:59.831Z,144.32
2022-11-10T12:29:43.041Z,153.88
2022-11-10T12:32:15.044Z,153.30
2022-11-10T12:34:50.333Z,150.57
2022-11-10T12:37:28.429Z,155.48
2022-11-10T12:40:17.789Z,150.93
2022-11-10T12:42:51.308Z,147.85
2022-11-10T12:45:22.779Z,137.98
2022-11-10T12:47:49.831Z,136.85
2022-11-10T12:50:16.254Z,134.70
2022-11-10T12:53:11.822Z,132.75
2022-11-10T12:55:46.223Z,116.00
2022-11-10T12:58:14.488Z,108.07
2022-11-10T13:00:55.480Z,106.03
2022-11-10T13:03:32.454Z,95.18
2022-11-10T13:06:02.293Z,92.43
2022-11-10T13:08:45.649Z,91.57
2022-11-10T13:11:12.062Z,86.78
2022-11-10T13:13:53.176Z,81.72
2022-11-10T13:16:44.819Z,79.72
2022-11-10T13:19:38.981Z,80.13
2022-11-10T13:22:10.297Z,80.68
2022-11-10T13:24:42.492Z,79.25
2022-11-10T13:27:32.966Z,83.28
2022-11-10T13:30:00.258Z,79.95
2022-11-10T13:32:32.293Z,77.55
2022-11-10T13:35:29.557Z,80.10
2022-11-10T13:38:00.381Z,80.13
2022-11-10T13:40:34.738Z,81.18
2022-11-10T13:43:01.152Z,78.63
2022-11-10T13:45:33.742Z,81.13
2022-11-10T13:48:34.930Z,81.25
2022-11-10T13:51:14.757Z,79.68
2022-11-10T13:54:42.743Z,82.18
2022-11-10T13:57:34.628Z,79.53
2022-11-10T14:00:07.665Z,76.18
2022-11-10T14:02:53.048Z,86.07
2022-11-10T14:05:29.040Z,76.00
2022-11-10T14:08:04.326Z,85.50
2022-11-10T14:11:02.469Z,86.20
2022-11-10T14:13:44.914Z,86.55
2022-11-10T14:16:18.974Z,93.97
2022-11-10T14:18:51.697Z,93.78
2022-11-10T14:21:41.042Z,96.28
2022-11-10T14:24:11.710Z,100.35
2022-11-10T14:26:46.768Z,105.45
2022-11-10T14:29:20.971Z,102.95
2022-11-10T14:31:47.741Z,101.07
2022-11-10T14:34:18.581Z,96.25
2022-11-10T14:36:56.654Z,95.03
2022-11-10T14:39:28.982Z,85.78
2022-11-10T14:41:57.326Z,81.80
2022-11-10T14:44:27.074Z,77.95
2022-11-10T14:46:54.846Z,73.68
2022-11-10T14:49:25.886Z,76.43
2022-11-10T14:51:57.610Z,74.20
2022-11-10T14:54:27.468Z,72.35
2022-11-10T14:56:55.760Z,73.38
2022-11-10T14:59:24.314Z,76.45
2022-11-10T15:01:54.837Z,74.00
2022-11-10T15:04:28.733Z,73.82
2022-11-10T15:06:56.629Z,73.20
2022-11-10T15:09:27.012Z,77.57
2022-11-10T15:12:02.478Z,78.93
2022-11-10T15:14:39.507Z,76.70
2022-11-10T15:17:11.756Z,75.00
2022-11-10T15:19:44.098Z,76.72
2022-11-10T15:22:22.102Z,73.55
2022-11-10T15:24:51.625Z,78.32
2022-11-10T15:27:27.830Z,78.07
2022-11-10T15:29:56.084Z,84.43
2022-11-10T15:32:28.058Z,80.85
2022-11-10T15:35:09.088Z,82.43
2022-11-10T15:37:35.760Z,76.07
2022-11-10T15:40:31.535Z,82.00
2022-11-10T15:43:29.058Z,86.32
2022-11-10T15:45:59.798Z,80.13
2022-11-10T15:48:37.797Z,85.20
2022-11-10T15:51:04.747Z,91.80
2022-11-10T15:53:37.447Z,99.07
2022-11-10T15:56:04.297Z,107.97
2022-11-10T15:58:30.868Z,112.45
2022-11-10T16:00:57.387Z,106.32
2022-11-10T16:03:24.187Z,106.20
2022-11-10T16:05:50.729Z,112.05
2022-11-10T16:08:22.522Z,107.43
2022-11-10T16:10:54.071Z,104.80
2022-11-10T16:13:26.660Z,108.47
2022-11-10T16:15:53.988Z,105.35
2022-11-10T16:18:23.772Z,104.65
2022-11-10T16:20:52.225Z,102.70
2022-11-10T16:23:19.656Z,101.30
2022-11-10T16:25:48.616Z,98.00
2022-11-10T16:28:24.098Z,94.93
2022-11-10T16:30:51.661Z,89.35
2022-11-10T16:33:20.168Z,94.22
2022-11-10T16:35:50.281Z,86.18
2022-11-10T16:38:22.437Z,85.90
2022-11-10T16:40:54.671Z,80.95
2022-11-10T16:43:22.069Z,92.78
2022-11-10T16:45:51.314Z,87.15
2022-11-10T16:48:38.056Z,89.75
2022-11-10T16:51:07.123Z,91.55
2022-11-10T16:53:33.662Z,93.68
2022-11-10T16:56:00.166Z,91.70
2022-11-10T16:58:28.156Z,94.97
2022-11-10T17:00:59.216Z,91.05
2022-11-10T17:03:35.557Z,92.82
2022-11-10T17:06:02.211Z,80.03
2022-11-10T17:08:31.007Z,82.35
2022-11-10T17:10:57.546Z,76.07
2022-11-10T17:13:25.141Z,78.85
2022-11-10T17:16:03.143Z,71.47
2022-11-10T17:18:29.827Z,70.60
2022-11-10T17:20:56.488Z,69.15
2022-11-10T17:23:24.973Z,71.18
2022-11-10T17:25:54.119Z,68.07
2022-11-10T17:28:20.982Z,68.55
2022-11-10T17:30:47.524Z,68.22
2022-11-10T17:33:14.092Z,67.53
2022-11-10T17:35:45.290Z,64.93
2022-11-10T17:38:17.145Z,69.35
2022-11-10T17:40:43.918Z,66.45
2022-11-10T17:43:12.325Z,67.78
2022-11-10T17:45:39.707Z,68.82
2022-11-10T17:48:07.332Z,71.75
2022-11-10T17:50:36.516Z,64.93
2022-11-10T17:53:24.080Z,67.85
2022-11-10T17:55:51.352Z,67.95
2022-11-10T17:58:18.195Z,69.35
2022-11-10T18:00:46.207Z,67.60
2022-11-10T18:03:18.379Z,67.65
2022-11-10T18:05:45.575Z,71.13
2022-11-10T18:08:13.595Z,69.55
2022-11-10T18:10:46.452Z,66.40
2022-11-10T18:13:13.017Z,66.15
2022-11-10T18:15:43.665Z,66.28
2022-11-10T18:18:11.975Z,65.38
2022-11-10T18:20:39.042Z,71.13
2022-11-10T18:23:07.240Z,62.50
2022-11-10T18:25:34.813Z,69.43
2022-11-10T18:28:01.361Z,67.30
2022-11-10T18:30:32.262Z,70.18
2022-11-10T18:33:02.983Z,69.72
2022-11-10T18:35:29.718Z,66.55
2022-11-10T18:37:57.437Z,67.10
2022-11-10T18:40:23.973Z,73.07
2022-11-10T18:42:50.541Z,68.22
2022-11-10T18:45:17.088Z,73.25
2022-11-10T18:47:43.573Z,70.32
2022-11-10T18:50:10.621Z,74.70
2022-11-10T18:52:37.191Z,74.43
2022-11-10T18:55:03.759Z,74.82
2022-11-10T18:57:30.253Z,75.60
2022-11-10T18:59:56.788Z,76.90
2022-11-10T19:02:23.274Z,76.68
2022-11-10T19:04:53.502Z,77.70
2022-11-10T19:07:20.699Z,78.25
2022-11-10T19:09:48.335Z,78.80
2022-11-10T19:12:14.991Z,80.10
2022-11-10T19:14:41.477Z,82.35
2022-11-10T19:17:08.074Z,83.35
2022-11-10T19:19:34.594Z,78.90
2022-11-10T19:22:01.145Z,78.78
2022-11-10T19:24:28.960Z,79.57
2022-11-10T19:26:56.883Z,74.82
2022-11-10T19:29:23.804Z,72.75
2022-11-10T19:31:50.330Z,75.10
2022-11-10T19:34:18.888Z,76.68
2022-11-10T19:36:46.095Z,74.53
2022-11-10T19:39:12.809Z,77.07
2022-11-10T19:41:39.481Z,75.95
2022-11-10T19:44:06.061Z,77.40
2022-11-10T19:46:36.602Z,74.75
2022-11-10T19:49:04.276Z,74.38
2022-11-10T19:51:30.782Z,73.97
2022-11-10T19:54:02.654Z,82.47
2022-11-10T19:56:32.149Z,75.50
2022-11-10T19:58:59.463Z,77.18
2022-11-10T20:01:26.575Z,80.88
2022-11-10T20:03:53.333Z,79.20
2022-11-10T20:06:21.839Z,79.72
2022-11-10T20:08:49.226Z,82.80
2022-11-10T20:11:19.259Z,81.03
2022-11-10T20:13:45.925Z,76.00
2022-11-10T20:16:13.004Z,71.95
2022-11-10T20:18:40.610Z,73.22
2022-11-10T20:21:13.043Z,76.53
2022-11-10T20:23:40.322Z,87.55
2022-11-10T20:26:09.982Z,79.70
2022-11-10T20:28:38.211Z,68.18
2022-11-10T20:31:07.754Z,64.15
2022-11-10T20:33:35.529Z,61.90
2022-11-10T20:36:19.967Z,57.15
2022-11-10T20:41:20.188Z,51.63
2022-11-10T20:43:47.168Z,52.67
2022-11-10T20:46:33.300Z,52.60
2022-11-10T20:49:02.902Z,50.67
2022-11-10T20:51:29.471Z,51.88
2022-11-10T20:53:56.976Z,51.95
2022-11-10T20:56:29.287Z,51.17
2022-11-10T20:58:56.575Z,53.22
2022-11-10T21:01:23.750Z,52.08
2022-11-10T21:03:50.445Z,57.00
2022-11-10T21:06:17.365Z,51.53
2022-11-10T21:08:43.899Z,49.35
2022-11-10T21:11:10.753Z,48.17
2022-11-10T21:13:37.571Z,47.90
2022-11-10T21:16:06.122Z,46.67
2022-11-10T21:18:36.886Z,45.33
2022-11-10T21:21:04.932Z,45.63
2022-11-10T21:23:31.967Z,45.38
2022-11-10T21:26:01.248Z,48.78
2022-11-10T21:28:27.791Z,49.10
2022-11-10T21:31:05.391Z,54.72
2022-11-10T21:33:31.965Z,59.83
2022-11-10T21:36:06.082Z,61.20
2022-11-10T21:38:32.838Z,60.88
2022-11-10T21:40:59.507Z,55.78
2022-11-10T21:43:26.096Z,51.88
2022-11-10T21:46:02.843Z,51.15
2022-11-10T21:48:29.627Z,47.95
2022-11-10T21:51:01.113Z,47.67
2022-11-10T21:53:27.828Z,46.40
2022-11-10T21:56:02.353Z,47.78
2022-11-10T21:58:29.177Z,47.30
2022-11-10T22:01:07.552Z,46.05
2022-11-10T22:03:34.978Z,47.45
2022-11-10T22:06:05.886Z,46.92
2022-11-10T22:08:33.177Z,46.72
2022-11-10T22:11:18.484Z,51.20
2022-11-10T22:14:03.726Z,51.42
2022-11-10T22:17:07.143Z,52.00
2022-11-10T22:19:35.389Z,54.28
2022-11-10T22:22:04.188Z,51.60
2022-11-10T22:24:30.939Z,56.75
2022-11-10T22:26:59.593Z,60.25
2022-11-10T22:29:32.170Z,59.65
2022-11-10T22:32:02.547Z,59.22
2022-11-10T22:34:29.214Z,62.00
2022-11-10T22:36:55.938Z,64.97
2022-11-10T22:39:22.810Z,72.53
2022-11-10T22:42:08.252Z,76.82
2022-11-10T22:44:36.258Z,77.20
2022-11-10T22:47:02.824Z,77.03
2022-11-10T22:49:29.376Z,84.05
2022-11-10T22:51:55.926Z,89.93
2022-11-10T22:54:23.943Z,91.53
2022-11-10T22:56:51.500Z,97.15
2022-11-10T22:59:18.878Z,102.70
2022-11-10T23:01:45.806Z,102.65
2022-11-10T23:04:12.657Z,110.03
2022-11-10T23:06:39.778Z,117.43
2022-11-10T23:09:06.393Z,118.57
2022-11-10T23:11:33.753Z,114.97
2022-11-10T23:14:00.514Z,101.85
2022-11-10T23:16:32.065Z,113.97
2022-11-10T23:18:59.060Z,115.22
2022-11-10T23:21:29.021Z,112.95
2022-11-10T23:23:56.270Z,120.30
2022-11-10T23:26:30.098Z,125.70
2022-11-10T23:28:56.688Z,123.23
2022-11-10T23:31:25.724Z,124.90
2022-11-10T23:33:56.636Z,124.05
2022-11-10T23:36:25.210Z,129.07
2022-11-10T23:38:52.002Z,132.27
2022-11-10T23:41:21.080Z,134.13
2022-11-10T23:43:47.696Z,140.15
2022-11-10T23:46:14.738Z,136.02
2022-11-10T23:48:42.211Z,138.02
2022-11-10T23:51:11.222Z,136.57
2022-11-10T23:53:38.192Z,136.80
2022-11-10T23:56:07.332Z,137.43
2022-11-10T23:58:33.892Z,133.82
